Terminal Aerodrome Forecast
Issued by NWS Twin Cities, MN

Home | Current Version | Previous Version | Graphics & Text | Print | Product List | Glossary On
Versions: 1 2 3 4 5 6 7 8 9 10 11 12 13
000
FTUS43 KMPX 301720
TAFEAU
TAF
KEAU 301720Z 3018/3118 01011G19KT P6SM BKN025 OVC250
     FM302200 02012G20KT P6SM SCT030 SCT250
     FM310100 03009KT P6SM FEW250=

USA.gov is the U.S. government's official web portal to all federal, state and local government web resources and services.